createdAt,value
2022-08-11T00:01:26.111Z,16.51
2022-08-11T00:04:11.636Z,16.56
2022-08-11T00:07:03.158Z,16.21
2022-08-11T00:09:49.847Z,16.53
2022-08-11T00:12:37.949Z,16.38
2022-08-11T00:15:39.628Z,16.14
2022-08-11T00:18:40.263Z,16.22
2022-08-11T00:22:01.974Z,16.23
2022-08-11T00:24:53.599Z,16.16
2022-08-11T00:27:42.868Z,16.16
2022-08-11T00:30:39.401Z,16.15
2022-08-11T00:33:44.409Z,16.09
2022-08-11T00:36:53.505Z,16.12
2022-08-11T00:39:46.815Z,16.11
2022-08-11T00:42:58.594Z,16.10
2022-08-11T00:46:12.506Z,16.10
2022-08-11T00:49:01.802Z,16.06
2022-08-11T00:52:22.759Z,16.00
2022-08-11T00:55:18.070Z,15.97
2022-08-11T00:58:06.344Z,15.92
2022-08-11T01:01:18.604Z,15.69
2022-08-11T01:04:23.740Z,15.85
2022-08-11T01:08:01.582Z,15.83
2022-08-11T01:11:16.630Z,15.79
2022-08-11T01:14:34.148Z,15.77
2022-08-11T01:17:36.514Z,15.74
2022-08-11T01:20:53.155Z,15.66
2022-08-11T01:24:04.113Z,15.94
2022-08-11T01:27:19.084Z,16.20
2022-08-11T01:30:27.610Z,16.22
2022-08-11T01:33:52.278Z,16.19
2022-08-11T01:36:53.416Z,16.60
2022-08-11T01:39:56.374Z,17.09
2022-08-11T01:43:40.571Z,17.74
2022-08-11T01:46:48.138Z,18.23
2022-08-11T01:50:05.965Z,18.40
2022-08-11T01:53:11.255Z,18.61
2022-08-11T01:56:43.263Z,18.61
2022-08-11T01:59:35.388Z,18.70
2022-08-11T02:02:44.990Z,18.69
2022-08-11T02:06:01.314Z,18.70
2022-08-11T02:09:00.027Z,18.49
2022-08-11T02:11:50.701Z,18.17
2022-08-11T02:15:04.987Z,17.82
2022-08-11T02:18:07.484Z,17.76
2022-08-11T02:21:22.006Z,17.85
2022-08-11T02:24:17.404Z,17.94
2022-08-11T02:27:19.280Z,18.02
2022-08-11T02:30:18.042Z,18.14
2022-08-11T02:33:25.611Z,18.29
2022-08-11T02:36:34.593Z,18.33
2022-08-11T02:39:22.144Z,18.46
2022-08-11T02:42:42.387Z,18.27
2022-08-11T02:45:42.174Z,18.48
2022-08-11T02:49:03.029Z,18.38
2022-08-11T02:51:55.015Z,18.45
2022-08-11T02:55:07.570Z,18.41
2022-08-11T03:01:29.082Z,18.11
2022-08-11T03:04:51.856Z,18.44
2022-08-11T03:08:15.461Z,18.14
2022-08-11T03:11:37.416Z,18.03
2022-08-11T03:15:32.138Z,17.86
2022-08-11T03:18:25.532Z,17.75
2022-08-11T03:22:01.394Z,17.73
2022-08-11T03:24:50.147Z,18.06
2022-08-11T03:28:19.838Z,18.25
2022-08-11T03:31:25.267Z,18.44
2022-08-11T03:34:20.556Z,18.42
2022-08-11T03:37:39.302Z,18.30
2022-08-11T03:41:02.800Z,17.95
2022-08-11T03:44:28.707Z,17.90
2022-08-11T03:47:28.371Z,18.09
2022-08-11T03:50:35.392Z,18.17
2022-08-11T03:53:56.749Z,18.32
2022-08-11T03:57:31.667Z,18.63
2022-08-11T04:00:50.409Z,18.75
2022-08-11T04:03:58.726Z,18.83
2022-08-11T04:07:02.492Z,18.79
2022-08-11T04:10:13.280Z,18.17
2022-08-11T04:13:17.487Z,17.51
2022-08-11T04:16:15.976Z,16.97
2022-08-11T04:19:40.138Z,16.70
2022-08-11T04:22:36.789Z,16.51
2022-08-11T04:25:57.715Z,16.12
2022-08-11T04:28:50.142Z,16.48
2022-08-11T04:31:50.363Z,16.57
2022-08-11T04:34:41.569Z,16.71
2022-08-11T04:37:34.266Z,16.87
2022-08-11T04:40:43.561Z,17.08
2022-08-11T04:44:05.654Z,17.41
2022-08-11T04:47:12.015Z,17.73
2022-08-11T04:50:43.269Z,17.93
2022-08-11T04:54:28.426Z,18.20
2022-08-11T04:57:41.690Z,18.46
2022-08-11T05:00:50.092Z,18.66
2022-08-11T05:04:33.084Z,18.95
2022-08-11T05:07:49.678Z,18.94
2022-08-11T05:10:56.998Z,19.25
2022-08-11T05:14:07.570Z,19.45
2022-08-11T05:17:18.600Z,19.80
2022-08-11T05:20:31.523Z,19.73
2022-08-11T05:23:41.639Z,20.17
2022-08-11T05:26:53.390Z,20.25
2022-08-11T05:30:06.166Z,20.21
2022-08-11T05:33:32.030Z,20.62
2022-08-11T05:36:45.299Z,20.63
2022-08-11T05:39:57.110Z,20.81
2022-08-11T05:43:08.288Z,20.98
2022-08-11T05:46:25.823Z,20.99
2022-08-11T05:49:32.971Z,21.00
2022-08-11T05:52:43.984Z,21.09
2022-08-11T05:56:22.275Z,21.24
2022-08-11T05:59:20.530Z,21.52
2022-08-11T06:02:11.321Z,21.61
2022-08-11T06:05:06.355Z,21.90
2022-08-11T06:08:02.811Z,21.89
2022-08-11T06:11:07.068Z,21.97
2022-08-11T06:14:04.348Z,21.97
2022-08-11T06:16:56.546Z,22.08
2022-08-11T06:19:51.210Z,22.19
2022-08-11T06:22:56.231Z,22.16
2022-08-11T06:25:47.621Z,22.35
2022-08-11T06:28:41.545Z,22.47
2022-08-11T06:31:36.263Z,22.51
2022-08-11T06:34:40.073Z,22.65
2022-08-11T06:37:59.140Z,22.89
2022-08-11T06:41:21.426Z,23.10
2022-08-11T06:44:15.682Z,23.24
2022-08-11T06:47:10.452Z,23.48
2022-08-11T06:50:19.560Z,23.55
2022-08-11T06:53:17.634Z,23.50
2022-08-11T06:56:28.436Z,23.46
2022-08-11T06:59:47.105Z,23.57
2022-08-11T07:03:01.713Z,23.58
2022-08-11T07:06:12.509Z,23.68
2022-08-11T07:10:26.847Z,23.84
2022-08-11T07:13:44.404Z,23.87
2022-08-11T07:16:35.666Z,23.85
2022-08-11T07:19:47.915Z,23.92
2022-08-11T07:22:55.306Z,23.70
2022-08-11T07:26:12.873Z,24.04
2022-08-11T07:29:14.292Z,24.24
2022-08-11T07:32:06.443Z,24.33
2022-08-11T07:35:14.219Z,24.53
2022-08-11T07:38:08.375Z,24.57
2022-08-11T07:41:04.357Z,24.68
2022-08-11T07:44:11.656Z,24.83
2022-08-11T07:47:20.287Z,24.93
2022-08-11T07:50:28.218Z,25.02
2022-08-11T07:53:23.593Z,25.27
2022-08-11T07:56:47.990Z,25.28
2022-08-11T08:00:03.395Z,25.35
2022-08-11T08:03:19.343Z,25.41
2022-08-11T08:06:35.779Z,25.40
2022-08-11T08:09:43.783Z,25.37
2022-08-11T08:12:54.057Z,25.62
2022-08-11T08:16:00.177Z,25.64
2022-08-11T08:18:50.107Z,25.61
2022-08-11T08:21:40.777Z,25.55
2022-08-11T08:24:36.853Z,25.63
2022-08-11T08:27:27.728Z,25.65
2022-08-11T08:30:37.152Z,25.67
2022-08-11T08:33:30.191Z,25.65
2022-08-11T08:36:21.349Z,25.66
2022-08-11T08:39:09.841Z,25.80
2022-08-11T08:42:00.166Z,25.74
2022-08-11T08:45:04.170Z,25.70
2022-08-11T08:48:01.961Z,25.51
2022-08-11T08:51:21.904Z,25.62
2022-08-11T08:54:35.114Z,25.75
2022-08-11T08:57:32.116Z,25.68
2022-08-11T09:00:41.038Z,25.54
2022-08-11T09:04:02.991Z,25.67
2022-08-11T09:06:43.019Z,25.80
2022-08-11T09:09:35.078Z,25.80
2022-08-11T09:12:36.304Z,25.85
2022-08-11T09:15:26.619Z,25.66
2022-08-11T09:18:19.665Z,25.63
2022-08-11T09:21:13.854Z,25.78
2022-08-11T09:24:26.584Z,25.91
2022-08-11T09:27:14.578Z,26.00
2022-08-11T09:30:17.066Z,25.96
2022-08-11T09:33:07.005Z,25.99
2022-08-11T09:35:54.894Z,25.95
2022-08-11T09:39:27.317Z,25.96
2022-08-11T09:42:45.627Z,25.86
2022-08-11T09:45:39.889Z,25.95
2022-08-11T09:48:45.530Z,25.75
2022-08-11T09:51:34.106Z,25.94
2022-08-11T09:54:22.105Z,25.78
2022-08-11T09:57:31.061Z,25.79
2022-08-11T10:00:18.988Z,25.58
2022-08-11T10:03:22.030Z,25.63
2022-08-11T10:06:34.254Z,25.69
2022-08-11T10:09:21.645Z,25.99
2022-08-11T10:12:43.198Z,26.14
2022-08-11T10:15:59.768Z,26.16
2022-08-11T10:18:53.702Z,26.15
2022-08-11T10:22:07.011Z,26.08
2022-08-11T10:25:20.032Z,26.21
2022-08-11T10:28:32.715Z,26.19
2022-08-11T10:31:45.128Z,26.19
2022-08-11T10:34:54.616Z,26.25
2022-08-11T10:38:07.753Z,26.22
2022-08-11T10:41:17.725Z,26.22
2022-08-11T10:44:10.033Z,26.16
2022-08-11T10:47:16.122Z,26.33
2022-08-11T10:50:29.388Z,26.44
2022-08-11T10:53:45.393Z,26.56
2022-08-11T10:57:18.399Z,26.70
2022-08-11T11:00:15.746Z,26.80
2022-08-11T11:03:23.055Z,26.80
2022-08-11T11:06:29.186Z,26.60
2022-08-11T11:09:33.664Z,26.46
2022-08-11T11:12:55.951Z,26.59
2022-08-11T11:16:06.584Z,26.53
2022-08-11T11:19:05.786Z,26.61
2022-08-11T11:22:19.185Z,26.66
2022-08-11T11:25:43.518Z,26.72
2022-08-11T11:29:18.740Z,26.69
2022-08-11T11:32:23.118Z,26.54
2022-08-11T11:35:26.332Z,26.46
2022-08-11T11:38:17.253Z,26.41
2022-08-11T11:41:26.287Z,26.38
2022-08-11T11:44:17.081Z,26.25
2022-08-11T11:47:16.117Z,26.28
2022-08-11T11:50:14.677Z,26.08
2022-08-11T11:53:15.466Z,26.26
2022-08-11T11:56:10.411Z,26.24
2022-08-11T11:59:28.298Z,26.12
2022-08-11T12:02:19.875Z,26.05
2022-08-11T12:05:17.582Z,26.06
2022-08-11T12:08:15.879Z,25.96
2022-08-11T12:11:25.889Z,25.91
2022-08-11T12:14:18.840Z,26.10
2022-08-11T12:17:10.631Z,26.18
2022-08-11T12:20:04.841Z,26.21
2022-08-11T12:23:35.010Z,25.84
2022-08-11T12:26:43.315Z,25.98
2022-08-11T12:29:50.067Z,25.69
2022-08-11T12:32:53.239Z,25.61
2022-08-11T12:35:42.788Z,25.63
2022-08-11T12:38:51.510Z,25.66
2022-08-11T12:42:02.145Z,25.90
2022-08-11T12:45:21.943Z,25.99
2022-08-11T12:48:58.412Z,25.93
2022-08-11T12:52:12.068Z,25.73
2022-08-11T12:55:13.682Z,25.53
2022-08-11T12:58:18.334Z,25.41
2022-08-11T13:01:27.714Z,25.36
2022-08-11T13:04:34.758Z,25.36
2022-08-11T13:07:51.007Z,25.32
2022-08-11T13:10:54.847Z,25.35
2022-08-11T13:13:53.587Z,25.27
2022-08-11T13:17:01.389Z,25.50
2022-08-11T13:19:50.308Z,25.59
2022-08-11T13:22:39.356Z,25.61
2022-08-11T13:25:31.691Z,25.68
2022-08-11T13:28:21.705Z,25.65
2022-08-11T13:31:14.641Z,25.65
2022-08-11T13:37:00.787Z,25.67
2022-08-11T13:39:53.174Z,25.67
2022-08-11T13:42:41.333Z,25.75
2022-08-11T13:45:27.963Z,25.72
2022-08-11T13:48:17.840Z,25.84
2022-08-11T13:51:22.836Z,25.78
2022-08-11T13:54:23.511Z,25.85
2022-08-11T13:58:06.710Z,25.83
2022-08-11T14:00:28.056Z,25.65
2022-08-11T14:03:18.798Z,25.59
2022-08-11T14:06:05.702Z,25.60
2022-08-11T14:08:55.592Z,25.31
2022-08-11T14:12:21.818Z,25.39
2022-08-11T14:15:35.633Z,25.40
2022-08-11T14:18:32.005Z,25.39
2022-08-11T14:21:40.940Z,25.50
2022-08-11T14:24:30.378Z,25.55
2022-08-11T14:28:29.814Z,25.74
2022-08-11T14:30:43.583Z,25.81
2022-08-11T14:34:00.409Z,25.90
2022-08-11T14:36:45.603Z,25.97
2022-08-11T14:39:41.524Z,25.71
2022-08-11T14:42:51.220Z,25.95
2022-08-11T14:45:58.646Z,25.79
2022-08-11T14:48:50.737Z,25.66
2022-08-11T14:51:41.754Z,25.63
2022-08-11T14:54:50.325Z,25.53
2022-08-11T14:57:55.578Z,25.48
2022-08-11T15:00:45.471Z,25.35
2022-08-11T15:03:33.903Z,25.01
2022-08-11T15:06:20.750Z,25.31
2022-08-11T15:09:09.360Z,25.34
2022-08-11T15:12:32.604Z,25.26
2022-08-11T15:15:39.369Z,25.41
2022-08-11T15:18:32.081Z,25.54
2022-08-11T15:21:36.571Z,25.60
2022-08-11T15:24:25.148Z,25.56
2022-08-11T15:27:35.575Z,25.63
2022-08-11T15:30:42.842Z,25.54
2022-08-11T15:33:53.373Z,25.62
2022-08-11T15:37:00.122Z,25.58
2022-08-11T15:40:31.194Z,25.51
2022-08-11T15:43:40.578Z,25.55
2022-08-11T15:46:46.237Z,25.47
2022-08-11T15:50:11.422Z,25.39
2022-08-11T15:52:57.314Z,25.18
2022-08-11T15:55:45.877Z,25.22
2022-08-11T15:59:10.779Z,25.18
2022-08-11T16:02:20.685Z,25.08
2022-08-11T16:05:11.486Z,25.08
2022-08-11T16:08:00.357Z,25.10
2022-08-11T16:10:48.072Z,25.11
2022-08-11T16:13:42.264Z,25.08
2022-08-11T16:16:30.676Z,25.12
2022-08-11T16:19:20.582Z,24.96
2022-08-11T16:22:09.793Z,25.02
2022-08-11T16:26:30.362Z,25.06
2022-08-11T16:28:08.090Z,25.08
2022-08-11T16:30:55.104Z,25.12
2022-08-11T16:33:51.301Z,24.81
2022-08-11T16:36:57.766Z,25.02
2022-08-11T16:39:48.342Z,24.95
2022-08-11T16:43:05.289Z,24.77
2022-08-11T16:46:22.614Z,24.85
2022-08-11T16:49:14.702Z,24.81
2022-08-11T16:52:08.127Z,24.79
2022-08-11T16:54:54.698Z,24.72
2022-08-11T16:58:00.112Z,24.69
2022-08-11T17:00:48.598Z,24.66
2022-08-11T17:03:53.775Z,24.64
2022-08-11T17:07:03.712Z,24.62
2022-08-11T17:10:52.476Z,24.53
2022-08-11T17:13:47.971Z,24.44
2022-08-11T17:16:37.920Z,24.48
2022-08-11T17:20:40.962Z,24.38
2022-08-11T17:22:56.068Z,24.35
2022-08-11T17:25:59.865Z,24.31
2022-08-11T17:28:56.779Z,24.23
2022-08-11T17:32:03.971Z,24.19
2022-08-11T17:35:21.068Z,23.96
2022-08-11T17:38:15.490Z,24.05
2022-08-11T17:41:23.614Z,23.99
2022-08-11T17:44:30.354Z,23.91
2022-08-11T17:47:38.923Z,23.84
2022-08-11T17:50:31.944Z,23.75
2022-08-11T17:53:38.713Z,23.69
2022-08-11T17:56:46.138Z,23.58
2022-08-11T17:59:51.587Z,23.56
2022-08-11T18:03:02.723Z,23.49
2022-08-11T18:05:49.846Z,23.38
2022-08-11T18:08:59.718Z,23.33
2022-08-11T18:12:11.648Z,23.23
2022-08-11T18:15:20.227Z,23.18
2022-08-11T18:18:28.051Z,23.10
2022-08-11T18:25:30.111Z,23.08
2022-08-11T18:28:56.281Z,23.02
2022-08-11T18:32:09.826Z,23.01
2022-08-11T18:35:18.999Z,22.98
2022-08-11T18:38:35.611Z,22.89
2022-08-11T18:41:48.033Z,22.82
2022-08-11T18:44:57.780Z,22.82
2022-08-11T18:48:11.514Z,22.81
2022-08-11T18:51:29.800Z,22.74
2022-08-11T18:54:42.618Z,22.67
2022-08-11T18:57:58.142Z,22.64
2022-08-11T19:01:07.312Z,22.51
2022-08-11T19:04:19.033Z,22.54
2022-08-11T19:07:25.338Z,22.46
2022-08-11T19:10:31.786Z,22.41
2022-08-11T19:13:43.331Z,22.38
2022-08-11T19:16:54.121Z,22.38
2022-08-11T19:20:00.164Z,22.37
2022-08-11T19:23:07.116Z,22.36
2022-08-11T19:26:12.879Z,22.29
2022-08-11T19:30:07.090Z,22.31
2022-08-11T19:32:43.819Z,22.27
2022-08-11T19:35:49.337Z,22.26
2022-08-11T19:38:55.813Z,21.94
2022-08-11T19:42:01.136Z,21.51
2022-08-11T19:45:08.145Z,21.10
2022-08-11T19:48:32.101Z,21.21
2022-08-11T19:51:38.918Z,21.37
2022-08-11T19:54:51.986Z,21.52
2022-08-11T19:57:57.876Z,21.65
2022-08-11T20:04:59.643Z,21.38
2022-08-11T20:11:57.620Z,21.49
2022-08-11T20:15:10.156Z,21.18
2022-08-11T20:18:43.735Z,21.39
2022-08-11T20:21:48.140Z,21.64
2022-08-11T20:24:54.902Z,21.51
2022-08-11T20:28:03.185Z,21.69
2022-08-11T20:31:20.083Z,21.68
2022-08-11T20:34:32.794Z,21.45
2022-08-11T20:37:41.003Z,21.17
2022-08-11T20:40:49.171Z,21.25
2022-08-11T20:44:09.115Z,21.27
2022-08-11T20:47:16.053Z,21.25
2022-08-11T20:50:21.927Z,21.32
2022-08-11T20:53:28.091Z,21.31
2022-08-11T20:56:34.081Z,21.14
2022-08-11T20:59:50.161Z,20.79
2022-08-11T21:03:04.153Z,20.81
2022-08-11T21:06:11.216Z,21.01
2022-08-11T21:09:19.639Z,21.10
2022-08-11T21:12:25.504Z,21.18
2022-08-11T21:15:47.605Z,21.11
2022-08-11T21:19:03.496Z,21.24
2022-08-11T21:22:10.233Z,21.25
2022-08-11T21:25:16.888Z,20.96
2022-08-11T21:28:26.932Z,21.15
2022-08-11T21:31:32.517Z,20.87
2022-08-11T21:34:39.196Z,20.80
2022-08-11T21:37:46.519Z,20.81
2022-08-11T21:40:57.797Z,20.89
2022-08-11T21:44:02.838Z,20.80
2022-08-11T21:47:08.504Z,21.04
2022-08-11T21:50:13.360Z,20.88
2022-08-11T21:53:19.607Z,20.80
2022-08-11T21:56:27.577Z,20.95
2022-08-11T21:59:41.615Z,20.85
2022-08-11T22:02:53.484Z,20.82
2022-08-11T22:06:02.479Z,20.71
2022-08-11T22:09:07.237Z,20.81
2022-08-11T22:12:33.423Z,20.77
2022-08-11T22:15:38.829Z,20.91
2022-08-11T22:18:43.968Z,20.72
2022-08-11T22:22:02.396Z,20.90
2022-08-11T22:25:16.633Z,20.71
2022-08-11T22:28:25.759Z,20.86
2022-08-11T22:31:31.128Z,20.66
2022-08-11T22:34:44.762Z,20.80
2022-08-11T22:37:58.822Z,20.77
2022-08-11T22:41:03.374Z,20.65
2022-08-11T22:44:07.729Z,20.39
2022-08-11T22:47:19.587Z,20.27
2022-08-11T22:50:26.604Z,20.12
2022-08-11T22:53:57.931Z,20.31
2022-08-11T22:56:59.427Z,19.90
2022-08-11T23:00:05.100Z,19.33
2022-08-11T23:03:10.273Z,18.91
2022-08-11T23:06:40.125Z,18.86
2022-08-11T23:09:44.740Z,19.30
2022-08-11T23:12:51.780Z,19.30
2022-08-11T23:15:57.644Z,19.08
2022-08-11T23:19:03.572Z,19.28
2022-08-11T23:22:10.552Z,19.33
2022-08-11T23:25:17.785Z,19.56
2022-08-11T23:28:24.972Z,19.79
2022-08-11T23:31:50.314Z,19.85
2022-08-11T23:35:37.065Z,19.71
2022-08-11T23:38:23.887Z,19.13
2022-08-11T23:41:29.970Z,19.02
2022-08-11T23:44:34.756Z,19.05
2022-08-11T23:47:50.916Z,19.32
2022-08-11T23:50:56.262Z,19.32
2022-08-11T23:54:00.783Z,19.84
2022-08-11T23:57:13.864Z,19.93
